Time;durP1;ratioP1;P1;durP2;ratioP2;P2;SDS_P1;SDS_P2;PMS_P1;PMS_P2;Temp;Humidity;BMP_temperature;BMP_pressure;BME280_temperature;BME280_humidity;BME280_pressure;Samples;Min_cycle;Max_cycle;Signal;HPM_P1;HPM_P2
2022/11/01 00:02:10;;;;;;;7.60;1.10;;;;;;;13.47;100.00;101263.53;5044003;28;20035;-85
2022/11/01 00:04:36;;;;;;;11.25;2.20;;;;;;;13.41;100.00;101264.09;5040666;28;20404;-86
2022/11/01 00:07:01;;;;;;;8.00;1.70;;;;;;;13.32;100.00;101270.19;5049342;28;20473;-87
2022/11/01 00:09:27;;;;;;;6.72;1.75;;;;;;;13.27;100.00;101264.56;5044472;28;20021;-86
2022/11/01 00:11:52;;;;;;;12.45;2.28;;;;;;;13.23;100.00;101266.63;5045894;28;20045;-86
2022/11/01 00:14:19;;;;;;;13.98;1.92;;;;;;;13.26;100.00;101273.38;5046700;28;20036;-86
2022/11/01 00:16:44;;;;;;;10.65;1.33;;;;;;;13.23;100.00;101271.88;5043381;28;20115;-87
2022/11/01 00:19:10;;;;;;;8.18;1.85;;;;;;;13.21;100.00;101267.78;5042551;28;20107;-86
2022/11/01 00:21:36;;;;;;;10.45;1.95;;;;;;;13.17;100.00;101266.41;5046335;28;20483;-86
2022/11/01 00:24:01;;;;;;;11.73;2.63;;;;;;;13.14;100.00;101261.44;5026330;28;20028;-86
2022/11/01 00:26:27;;;;;;;6.43;1.58;;;;;;;13.15;100.00;101257.84;5045120;28;20067;-86
2022/11/01 00:28:53;;;;;;;9.40;2.03;;;;;;;13.15;100.00;101258.66;5045290;28;20037;-86
2022/11/01 00:31:19;;;;;;;8.95;1.63;;;;;;;13.15;100.00;101252.63;5046560;28;20032;-84
2022/11/01 00:33:46;;;;;;;9.23;1.75;;;;;;;13.11;100.00;101254.69;5044390;28;20388;-85
2022/11/01 00:36:12;;;;;;;10.73;2.10;;;;;;;12.91;100.00;101255.69;5044388;28;20048;-86
2022/11/01 00:38:38;;;;;;;8.15;2.33;;;;;;;12.68;100.00;101252.56;5044372;28;20133;-85
2022/11/01 00:41:04;;;;;;;7.68;2.75;;;;;;;12.52;100.00;101254.91;5044804;28;20032;-86
2022/11/01 00:43:33;;;;;;;6.28;2.08;;;;;;;12.41;100.00;101260.25;5042224;28;20374;-86
2022/11/01 00:45:59;;;;;;;8.48;2.60;;;;;;;12.30;100.00;101256.81;5026078;28;20029;-86
2022/11/01 00:48:25;;;;;;;7.80;2.45;;;;;;;12.19;100.00;101258.75;5041818;28;20039;-86
2022/11/01 00:50:51;;;;;;;8.13;2.75;;;;;;;12.13;100.00;101259.28;5045312;28;20028;-85
2022/11/01 00:53:17;;;;;;;10.23;2.70;;;;;;;12.09;100.00;101258.72;5044367;28;20033;-84
2022/11/01 00:55:42;;;;;;;12.35;2.40;;;;;;;12.08;100.00;101256.25;5039957;28;20029;-85
2022/11/01 00:58:08;;;;;;;8.57;1.90;;;;;;;12.09;100.00;101258.72;5044344;28;20080;-84
2022/11/01 01:00:34;;;;;;;10.60;2.40;;;;;;;12.24;100.00;101261.78;5044561;28;20021;-86
2022/11/01 01:02:59;;;;;;;8.50;2.03;;;;;;;12.43;100.00;101258.34;5026448;28;20040;-85
2022/11/01 01:05:25;;;;;;;10.10;1.50;;;;;;;12.51;100.00;101248.84;5041767;28;20029;-85
2022/11/01 01:07:50;;;;;;;7.65;1.52;;;;;;;12.62;100.00;101247.88;5044932;28;20084;-85
2022/11/01 01:10:16;;;;;;;8.70;1.77;;;;;;;12.68;100.00;101252.56;5043826;28;20025;-86
2022/11/01 01:12:42;;;;;;;10.15;1.52;;;;;;;12.76;100.00;101242.22;5045712;28;20032;-86
2022/11/01 01:15:08;;;;;;;8.52;1.90;;;;;;;12.78;100.00;101245.50;5044779;28;20049;-84
2022/11/01 01:17:33;;;;;;;9.63;1.77;;;;;;;12.80;100.00;101248.81;5024832;28;20032;-85
2022/11/01 01:19:58;;;;;;;12.02;2.25;;;;;;;12.78;100.00;101253.34;5041621;28;20036;-85
2022/11/01 01:22:24;;;;;;;16.00;2.67;;;;;;;12.75;100.00;101240.59;5044072;28;20489;-86
2022/11/01 01:24:50;;;;;;;7.32;1.52;;;;;;;12.77;100.00;101245.66;5044334;28;20142;-85
2022/11/01 01:27:16;;;;;;;7.60;1.52;;;;;;;12.74;100.00;101233.72;5045867;28;20029;-85
2022/11/01 01:29:44;;;;;;;8.80;2.35;;;;;;;12.72;100.00;101235.63;5043962;28;20038;-85
2022/11/01 01:32:18;;;;;;;7.55;0.93;;;;;;;12.70;100.00;101227.09;5047898;28;20472;-85
2022/11/01 01:34:44;;;;;;;7.40;1.90;;;;;;;12.71;100.00;101227.94;5046360;28;20531;-85
2022/11/01 01:37:10;;;;;;;12.05;1.52;;;;;;;12.71;100.00;101228.75;5041712;28;20037;-85
2022/11/01 01:39:36;;;;;;;6.93;1.40;;;;;;;12.70;100.00;101234.94;5043472;28;20450;-85
2022/11/01 01:42:33;;;;;;;12.55;1.40;;;;;;;12.68;100.00;101234.25;5026095;28;20021;-85
2022/11/01 01:44:58;;;;;;;9.27;1.67;;;;;;;12.67;100.00;101237.84;5047311;28;20120;-86
2022/11/01 01:47:38;;;;;;;7.97;1.15;;;;;;;12.71;100.00;101233.97;5042863;28;20495;-85
2022/11/01 01:50:15;;;;;;;7.00;1.52;;;;;;;12.70;100.00;101236.75;5024291;28;20037;-86
2022/11/01 01:53:00;;;;;;;5.47;1.40;;;;;;;12.67;100.00;101247.47;5043399;28;20120;-86
2022/11/01 01:55:55;;;;;;;10.70;1.33;;;;;;;12.66;100.00;101246.66;5043246;28;20463;-86
2022/11/01 01:58:24;;;;;;;15.70;2.10;;;;;;;12.65;100.00;101242.38;5038547;28;20025;-86
2022/11/01 02:00:50;;;;;;;12.30;1.38;;;;;;;12.63;100.00;101242.53;5048916;28;20156;-86
2022/11/01 02:03:16;;;;;;;10.13;2.15;;;;;;;12.60;100.00;101252.44;5043911;28;20049;-86
2022/11/01 02:05:57;;;;;;;8.07;2.08;;;;;;;12.58;100.00;101242.09;5052579;28;20059;-86
2022/11/01 02:08:26;;;;;;;9.63;2.17;;;;;;;12.57;100.00;101247.47;5040669;28;20559;-85
2022/11/01 02:10:59;;;;;;;10.85;2.25;;;;;;;12.52;100.00;101245.28;5042373;28;20479;-86
2022/11/01 02:13:24;;;;;;;10.95;1.77;;;;;;;12.51;100.00;101243.63;5037772;28;20041;-86
2022/11/01 02:16:31;;;;;;;9.85;1.65;;;;;;;12.51;100.00;101248.03;5046518;28;20384;-86
2022/11/01 02:19:31;;;;;;;10.27;1.98;;;;;;;12.51;100.00;101238.41;5036036;28;20412;-86
2022/11/01 02:22:15;;;;;;;9.00;1.60;;;;;;;12.52;100.00;101245.28;5046457;28;20147;-85
2022/11/01 02:24:51;;;;;;;6.40;1.42;;;;;;;12.52;100.00;101244.44;5044780;28;20449;-86
2022/11/01 02:27:25;;;;;;;;;;;;;;;12.44;100.00;101246.91;5052028;28;20499;-86
2022/11/01 02:29:51;;;;;;;6.47;1.38;;;;;;;12.41;100.00;101247.19;5030177;28;19921;-85
2022/11/01 02:32:45;;;;;;;7.25;1.85;;;;;;;12.40;100.00;101248.16;5030577;28;20439;-88
2022/11/01 02:35:23;;;;;;;8.43;1.67;;;;;;;12.39;100.00;101239.50;5029237;28;20049;-86
2022/11/01 02:38:20;;;;;;;6.43;1.55;;;;;;;12.40;100.00;101242.94;5045277;28;20084;-86
2022/11/01 02:40:51;;;;;;;;;;;;;;;12.39;100.00;101238.66;5048131;28;20029;-86
2022/11/01 02:43:21;;;;;;;10.27;1.92;;;;;;;12.40;100.00;101235.09;5046958;28;20011;-87
2022/11/01 02:45:49;;;;;;;9.40;1.95;;;;;;;12.39;100.00;101238.66;5047987;28;20393;-84
2022/11/01 02:48:20;;;;;;;4.88;1.33;;;;;;;12.34;100.00;101241.69;5047226;28;20025;-85
2022/11/01 02:50:51;;;;;;;9.43;1.45;;;;;;;12.36;100.00;101233.72;5046583;28;20409;-85
2022/11/01 02:53:16;;;;;;;12.10;1.60;;;;;;;12.35;100.00;101237.28;5046771;28;20232;-85
2022/11/01 02:55:41;;;;;;;6.00;1.42;;;;;;;12.35;100.00;101232.06;5047072;28;20032;-84
2022/11/01 02:58:19;;;;;;;8.95;1.55;;;;;;;12.32;100.00;101233.16;5048044;28;20039;-85
2022/11/01 03:00:44;;;;;;;7.53;1.33;;;;;;;12.31;100.00;101241.94;5044262;28;20033;-86
2022/11/01 03:03:19;;;;;;;12.35;1.85;;;;;;;12.28;100.00;101237.84;5029496;28;20083;-84
2022/11/01 03:06:00;;;;;;;13.23;1.83;;;;;;;12.24;100.00;101236.47;5046283;28;20028;-85
2022/11/01 03:08:43;;;;;;;10.73;3.05;;;;;;;12.27;100.00;101244.03;5047303;28;20024;-85
2022/11/01 03:11:11;;;;;;;5.40;1.25;;;;;;;12.26;100.00;101238.94;5026405;28;20167;-84
2022/11/01 03:13:55;;;;;;;9.55;2.15;;;;;;;12.27;100.00;101230.97;5042351;28;20373;-85
2022/11/01 03:16:29;;;;;;;9.65;1.85;;;;;;;12.22;100.00;101230.56;5048951;28;20036;-84
2022/11/01 03:19:18;;;;;;;10.38;2.05;;;;;;;12.21;100.00;101230.69;5047484;28;20036;-85
2022/11/01 03:21:57;;;;;;;6.78;1.27;;;;;;;12.15;100.00;101226.00;5047586;28;20063;-85
2022/11/01 03:24:30;;;;;;;12.25;1.20;;;;;;;12.13;100.00;101223.53;5043395;28;20068;-85
2022/11/01 03:27:25;;;;;;;8.43;1.00;;;;;;;12.10;100.00;101230.81;5047939;28;20091;-85
2022/11/01 03:29:57;;;;;;;7.15;1.45;;;;;;;12.00;100.00;101237.81;5046552;28;20064;-86
2022/11/01 03:32:31;;;;;;;8.02;1.80;;;;;;;11.85;100.00;101239.97;5046356;28;20040;-84
2022/11/01 03:35:00;;;;;;;10.95;1.30;;;;;;;11.81;100.00;101241.22;5047497;28;20544;-84
2022/11/01 03:37:27;;;;;;;5.50;1.30;;;;;;;11.82;100.00;101240.22;5027280;28;20032;-85
2022/11/01 03:39:55;;;;;;;9.40;1.48;;;;;;;11.82;100.00;101245.47;5045501;28;20114;-84
2022/11/01 03:42:22;;;;;;;7.07;1.50;;;;;;;11.85;100.00;101250.41;5026119;28;20029;-85
2022/11/01 03:45:02;;;;;;;8.85;1.42;;;;;;;11.91;100.00;101249.88;5048687;28;20135;-85
2022/11/01 03:47:28;;;;;;;6.22;1.48;;;;;;;11.92;100.00;101254.97;5045773;28;20043;-85
2022/11/01 03:50:11;;;;;;;9.73;1.42;;;;;;;11.90;100.00;101258.66;5047530;28;20115;-85
2022/11/01 03:52:37;;;;;;;6.20;1.05;;;;;;;11.91;100.00;101260.31;5041205;28;20045;-84
2022/11/01 03:55:16;;;;;;;7.95;1.65;;;;;;;11.89;100.00;101257.84;5044929;28;20064;-83
2022/11/01 03:57:54;;;;;;;10.80;1.52;;;;;;;11.85;100.00;101259.06;5036646;28;20033;-83
2022/11/01 04:00:20;;;;;;;11.75;1.95;;;;;;;11.88;100.00;101257.97;5046181;28;20036;-83
2022/11/01 04:02:48;;;;;;;15.20;3.03;;;;;;;11.83;100.00;101257.56;5045769;28;20031;-84
2022/11/01 04:05:13;;;;;;;10.35;1.90;;;;;;;11.79;100.00;101262.25;5042887;28;20415;-85
2022/11/01 04:07:39;;;;;;;11.90;2.47;;;;;;;11.77;100.00;101255.50;5042905;28;20078;-85
2022/11/01 04:10:06;;;;;;;9.55;1.10;;;;;;;11.76;100.00;101257.25;5046375;28;20074;-85
2022/11/01 04:12:31;;;;;;;6.15;1.67;;;;;;;11.79;100.00;101250.97;5048671;28;20052;-85
2022/11/01 04:20:33;;;;;;;10.88;1.83;;;;;;;11.83;100.00;101260.16;5045020;28;20519;-85
2022/11/01 04:23:04;;;;;;;8.70;1.15;;;;;;;11.79;100.00;101258.81;5045080;28;20033;-85
2022/11/01 04:25:31;;;;;;;6.55;1.05;;;;;;;11.82;100.00;101255.91;5043695;28;20090;-85
2022/11/01 04:27:57;;;;;;;4.65;0.95;;;;;;;11.79;100.00;101256.19;5043988;28;20476;-85
2022/11/01 04:30:27;;;;;;;12.18;1.67;;;;;;;11.71;100.00;101253.38;5028202;28;20029;-86
2022/11/01 04:32:53;;;;;;;8.50;1.65;;;;;;;11.68;100.00;101251.03;5045160;28;20041;-86
2022/11/01 04:35:19;;;;;;;6.82;1.27;;;;;;;11.70;100.00;101249.13;5046290;28;20150;-86
2022/11/01 04:37:45;;;;;;;8.90;1.77;;;;;;;11.67;100.00;101247.59;5042732;28;20385;-86
2022/11/01 04:40:12;;;;;;;6.35;1.58;;;;;;;11.69;100.00;101242.25;5042787;28;20025;-85
2022/11/01 04:42:38;;;;;;;10.35;1.80;;;;;;;11.67;100.00;101247.59;5040525;28;20327;-84
2022/11/01 04:45:06;;;;;;;13.25;2.90;;;;;;;11.65;100.00;101246.91;5046738;28;20318;-85
2022/11/01 04:47:32;;;;;;;9.98;2.20;;;;;;;11.59;100.00;101250.88;5045985;28;20029;-85
2022/11/01 04:49:57;;;;;;;5.10;1.20;;;;;;;11.57;100.00;101252.78;5043618;28;20025;-85
2022/11/01 04:52:23;;;;;;;6.25;0.95;;;;;;;11.57;100.00;101250.19;5046279;28;20025;-87
2022/11/01 04:54:49;;;;;;;6.22;1.42;;;;;;;11.56;100.00;101251.13;5039553;28;20029;-87
2022/11/01 04:57:24;;;;;;;8.73;1.52;;;;;;;11.50;100.00;101243.81;5045953;28;20032;-86
2022/11/01 04:59:56;;;;;;;6.57;1.52;;;;;;;11.46;100.00;101241.59;5027256;28;20108;-88
2022/11/01 05:02:22;;;;;;;8.52;1.13;;;;;;;11.42;100.00;101248.88;5043833;28;20044;-88
2022/11/01 05:04:49;;;;;;;10.68;1.77;;;;;;;11.45;100.00;101243.38;5025671;28;20032;-87
2022/11/01 05:07:15;;;;;;;9.35;1.40;;;;;;;11.47;100.00;101246.69;5048901;28;20025;-86
2022/11/01 05:09:41;;;;;;;15.02;1.50;;;;;;;11.49;100.00;101239.56;5043663;28;20511;-84
2022/11/01 05:12:07;;;;;;;9.13;1.85;;;;;;;11.46;100.00;101250.25;5044987;28;20033;-86
2022/11/01 05:14:33;;;;;;;7.00;1.40;;;;;;;11.46;100.00;101259.88;5043794;28;20060;-86
2022/11/01 05:16:58;;;;;;;9.82;1.67;;;;;;;11.46;100.00;101265.91;5045467;28;20119;-87
2022/11/01 05:19:24;;;;;;;8.85;1.75;;;;;;;11.46;100.00;101265.09;5032060;28;20025;-87
2022/11/01 05:21:50;;;;;;;4.95;1.58;;;;;;;11.48;100.00;101258.78;5047259;28;20040;-85
2022/11/01 05:24:16;;;;;;;10.00;2.33;;;;;;;11.47;100.00;101269.34;5044619;28;20021;-86
2022/11/01 05:26:41;;;;;;;11.98;2.20;;;;;;;11.41;100.00;101273.31;5044759;28;20435;-85
2022/11/01 05:29:07;;;;;;;8.20;1.80;;;;;;;11.38;100.00;101281.41;5028411;28;20035;-86
2022/11/01 05:31:32;;;;;;;9.68;2.08;;;;;;;11.34;100.00;101276.59;5046910;28;20057;-85
2022/11/01 05:33:59;;;;;;;8.93;2.17;;;;;;;11.29;100.00;101263.94;5046598;28;20036;-85
2022/11/01 05:36:24;;;;;;;12.95;1.58;;;;;;;11.28;100.00;101267.50;5050386;28;20029;-86
2022/11/01 05:38:50;;;;;;;13.82;2.03;;;;;;;11.33;100.00;101260.13;5049089;28;20044;-85
2022/11/01 05:41:15;;;;;;;17.65;1.88;;;;;;;11.37;100.00;101261.47;5031269;28;20110;-85
2022/11/01 05:43:41;;;;;;;6.68;1.63;;;;;;;11.40;100.00;101263.00;5048306;28;20040;-83
2022/11/01 05:46:06;;;;;;;8.95;1.35;;;;;;;11.40;100.00;101265.59;5049203;28;20085;-85
2022/11/01 05:48:33;;;;;;;10.50;2.50;;;;;;;11.44;100.00;101256.56;5045375;28;20160;-85
2022/11/01 05:50:59;;;;;;;12.25;1.80;;;;;;;11.42;100.00;101264.53;5047524;28;20033;-85
2022/11/01 05:53:25;;;;;;;4.72;1.10;;;;;;;11.41;100.00;101275.91;5046415;28;20590;-85
2022/11/01 05:55:50;;;;;;;8.93;1.40;;;;;;;11.41;100.00;101275.91;5029163;28;20032;-85
2022/11/01 05:58:16;;;;;;;11.05;2.03;;;;;;;11.40;100.00;101276.88;5047557;28;20120;-85
2022/11/01 06:00:41;;;;;;;6.95;1.80;;;;;;;11.42;100.00;101285.41;5043197;28;20147;-85
2022/11/01 06:03:07;;;;;;;8.68;1.67;;;;;;;11.43;100.00;101286.22;5048022;28;20033;-84
2022/11/01 06:05:33;;;;;;;12.73;1.92;;;;;;;11.42;100.00;101295.84;5030474;28;20043;-84
2022/11/01 06:08:02;;;;;;;9.65;1.90;;;;;;;11.41;100.00;101291.56;5049563;28;20037;-85
2022/11/01 06:10:29;;;;;;;11.50;1.95;;;;;;;11.37;100.00;101287.56;5043677;28;20108;-84
2022/11/01 06:12:55;;;;;;;12.40;1.92;;;;;;;11.37;100.00;101294.56;5048670;28;20083;-85
2022/11/01 06:15:20;;;;;;;5.82;1.58;;;;;;;11.38;100.00;101293.63;5047667;28;20455;-86
2022/11/01 06:17:46;;;;;;;6.85;1.95;;;;;;;11.41;100.00;101299.41;5051053;28;20056;-86
2022/11/01 06:20:11;;;;;;;5.85;1.70;;;;;;;11.46;100.00;101304.22;5048976;28;20052;-85
2022/11/01 06:22:37;;;;;;;10.10;2.08;;;;;;;11.45;100.00;101306.00;5047761;28;20056;-85
2022/11/01 06:25:05;;;;;;;5.85;1.52;;;;;;;11.48;100.00;101316.19;5025818;28;20400;-85
2022/11/01 06:27:31;;;;;;;9.98;1.58;;;;;;;11.48;100.00;101315.38;5047335;28;20128;-85
2022/11/01 06:29:56;;;;;;;6.72;1.73;;;;;;;11.51;100.00;101323.78;5046177;28;20025;-84
2022/11/01 06:32:22;;;;;;;6.25;1.83;;;;;;;11.53;100.00;101316.63;5047602;28;20484;-84
2022/11/01 06:34:47;;;;;;;7.22;2.20;;;;;;;11.56;100.00;101328.59;5050196;28;20108;-84
2022/11/01 06:37:13;;;;;;;6.60;1.42;;;;;;;11.57;100.00;101331.09;5042138;28;20108;-84
2022/11/01 06:39:38;;;;;;;6.45;1.75;;;;;;;11.61;100.00;101337.69;5047123;28;20118;-84
2022/11/01 06:42:04;;;;;;;14.60;1.83;;;;;;;11.69;100.00;101347.50;5048688;28;20051;-85
2022/11/01 06:44:29;;;;;;;9.75;1.95;;;;;;;11.71;100.00;101342.97;5047509;28;20543;-84
2022/11/01 06:46:55;;;;;;;11.10;1.60;;;;;;;11.73;100.00;101342.84;5044337;28;20087;-84
2022/11/01 06:49:21;;;;;;;7.82;1.77;;;;;;;11.77;100.00;101341.66;5048647;28;20048;-84
2022/11/01 06:51:46;;;;;;;5.00;1.27;;;;;;;11.78;100.00;101336.31;5029833;28;20364;-84
2022/11/01 06:54:12;;;;;;;13.05;1.80;;;;;;;11.82;100.00;101332.44;5047319;28;20465;-86
2022/11/01 06:56:37;;;;;;;10.38;1.45;;;;;;;11.86;100.00;101333.00;5059475;28;20075;-85
2022/11/01 06:59:04;;;;;;;9.57;1.75;;;;;;;11.91;100.00;101344.72;5056355;28;20067;-85
2022/11/01 07:01:29;;;;;;;18.48;2.17;;;;;;;11.93;100.00;101349.81;5048596;28;20025;-86
2022/11/01 07:03:55;;;;;;;9.40;1.98;;;;;;;11.97;100.00;101343.38;5058439;28;20466;-84
2022/11/01 07:06:23;;;;;;;5.88;1.23;;;;;;;12.00;100.00;101353.56;5054831;28;20620;-85
2022/11/01 07:08:48;;;;;;;7.18;1.48;;;;;;;12.06;100.00;101347.81;5045753;28;20447;-85
2022/11/01 07:11:14;;;;;;;7.72;1.38;;;;;;;12.11;100.00;101360.47;5044053;28;20028;-85
2022/11/01 07:13:39;;;;;;;8.07;1.55;;;;;;;12.16;100.00;101363.50;5048144;28;20041;-86
2022/11/01 07:16:05;;;;;;;13.77;1.60;;;;;;;12.22;100.00;101357.75;5055799;28;20036;-86
2022/11/01 07:18:31;;;;;;;9.13;2.00;;;;;;;12.27;100.00;101364.25;5044235;28;20029;-86
2022/11/01 07:20:56;;;;;;;8.32;1.85;;;;;;;12.30;100.00;101369.16;5051822;28;20037;-85
2022/11/01 07:23:22;;;;;;;9.82;2.05;;;;;;;12.30;100.00;101360.50;5038655;28;20476;-85
2022/11/01 07:25:51;;;;;;;6.22;1.75;;;;;;;12.32;100.00;101358.59;5029416;28;20029;-86
2022/11/01 07:28:17;;;;;;;11.18;2.35;;;;;;;12.39;100.00;101353.66;5041203;28;20036;-85
2022/11/01 07:30:45;;;;;;;8.65;2.45;;;;;;;12.43;100.00;101355.03;5047453;28;20040;-85
2022/11/01 07:33:11;;;;;;;8.30;1.20;;;;;;;12.48;100.00;101353.66;5049997;28;20032;-85
2022/11/01 07:35:36;;;;;;;6.72;1.70;;;;;;;12.53;100.00;101355.88;5045558;28;20040;-86
2022/11/01 07:38:02;;;;;;;8.88;1.73;;;;;;;12.61;100.00;101349.00;5044286;28;20029;-84
2022/11/01 07:40:27;;;;;;;7.63;1.58;;;;;;;12.73;100.00;101346.28;5045026;28;20028;-86
2022/11/01 07:42:56;;;;;;;4.85;1.00;;;;;;;12.85;100.00;101351.22;5027517;28;20428;-86
2022/11/01 07:45:22;;;;;;;7.57;0.90;;;;;;;12.98;100.00;101352.72;5045825;28;20055;-85
2022/11/01 07:47:48;;;;;;;9.43;1.65;;;;;;;13.04;100.00;101355.63;5027201;28;20029;-86
2022/11/01 07:50:13;;;;;;;8.77;1.95;;;;;;;13.07;100.00;101349.28;5026206;28;20527;-86
2022/11/01 07:52:39;;;;;;;11.75;2.85;;;;;;;13.07;100.00;101354.53;5046237;28;20376;-86
2022/11/01 07:55:05;;;;;;;5.82;1.38;;;;;;;13.15;100.00;101354.66;5046673;28;20493;-86
2022/11/01 07:57:36;;;;;;;9.68;1.30;;;;;;;13.21;100.00;101359.38;5024415;28;20044;-85
2022/11/01 08:00:01;;;;;;;8.52;1.73;;;;;;;13.27;100.00;101364.00;5048021;28;20506;-84
2022/11/01 08:02:27;;;;;;;6.60;1.40;;;;;;;13.32;100.00;101359.19;5026096;28;20029;-85
2022/11/01 08:04:53;;;;;;;8.75;1.25;;;;;;;13.35;100.00;101352.84;5051124;28;20036;-85
2022/11/01 08:07:18;;;;;;;8.15;1.38;;;;;;;13.39;100.00;101347.19;5051121;28;20080;-87
2022/11/01 08:09:44;;;;;;;4.32;1.23;;;;;;;13.48;100.00;101351.59;5058110;28;20055;-87
2022/11/01 08:12:09;;;;;;;9.98;1.35;;;;;;;13.58;100.00;101344.53;5067929;28;20044;-86
2022/11/01 08:14:35;;;;;;;6.85;1.83;;;;;;;13.61;100.00;101352.09;5066645;28;20041;-87
2022/11/01 08:17:00;;;;;;;5.03;0.88;;;;;;;13.73;100.00;101351.91;5063546;28;20027;-85
2022/11/01 08:19:26;;;;;;;6.38;1.17;;;;;;;13.86;100.00;101352.41;5050707;28;20124;-85
2022/11/01 08:21:51;;;;;;;7.30;0.95;;;;;;;13.93;100.00;101348.25;5032028;28;20116;-85
2022/11/01 08:24:17;;;;;;;6.07;1.20;;;;;;;14.00;100.00;101344.09;5027281;28;20110;-86
2022/11/01 08:26:43;;;;;;;8.60;1.10;;;;;;;13.99;100.00;101347.66;5049114;28;20117;-86
2022/11/01 08:29:08;;;;;;;11.40;1.27;;;;;;;14.06;100.00;101345.28;5048214;28;20021;-86
2022/11/01 08:31:38;;;;;;;6.05;1.48;;;;;;;14.17;100.00;101338.06;5027567;28;20025;-86
2022/11/01 08:34:04;;;;;;;8.00;1.67;;;;;;;14.17;100.00;101342.50;5026663;28;20412;-85
2022/11/01 08:36:30;;;;;;;8.15;1.50;;;;;;;14.25;100.00;101348.63;5043088;28;20040;-85
2022/11/01 08:38:56;;;;;;;7.95;0.85;;;;;;;14.30;99.79;101345.56;5042079;28;20449;-86
2022/11/01 08:41:22;;;;;;;7.32;1.27;;;;;;;14.36;98.70;101350.22;5044252;28;20029;-84
2022/11/01 08:43:48;;;;;;;5.07;0.80;;;;;;;14.41;99.19;101344.53;5043845;28;20032;-84
2022/11/01 08:46:13;;;;;;;10.60;0.77;;;;;;;14.46;98.67;101351.03;5044196;28;20033;-85
2022/11/01 08:48:39;;;;;;;5.22;0.95;;;;;;;14.53;98.15;101346.84;5023442;28;20051;-85
2022/11/01 08:51:04;;;;;;;7.80;1.00;;;;;;;14.56;98.70;101356.19;5015898;28;20028;-85
2022/11/01 08:53:30;;;;;;;10.77;1.70;;;;;;;14.54;98.23;101352.91;5024821;28;20029;-84
2022/11/01 08:55:59;;;;;;;5.35;1.23;;;;;;;14.65;97.34;101357.09;5046952;28;20025;-86
2022/11/01 08:58:24;;;;;;;7.28;1.02;;;;;;;14.75;96.94;101357.84;5047764;28;20473;-85
2022/11/01 09:00:50;;;;;;;8.50;1.20;;;;;;;14.75;97.02;101357.84;5038340;28;20164;-84
2022/11/01 09:20:44;;;;;;;9.60;1.25;;;;;;;15.59;93.84;101360.81;5041475;28;20438;-80
2022/11/01 09:23:09;;;;;;;12.23;1.83;;;;;;;15.53;94.86;101366.66;5043925;28;20211;-80
2022/11/01 09:25:35;;;;;;;10.35;1.33;;;;;;;15.63;93.14;101366.56;5031105;28;20028;-80
2022/11/01 09:28:01;;;;;;;6.57;0.93;;;;;;;15.69;92.99;101366.75;5043990;28;20488;-80
2022/11/01 09:30:27;;;;;;;7.88;1.05;;;;;;;15.75;91.98;101360.06;5047774;28;20044;-81
2022/11/01 09:32:53;;;;;;;15.70;1.55;;;;;;;15.81;91.31;101364.69;5044803;28;20059;-81
2022/11/01 09:35:18;;;;;;;9.70;1.88;;;;;;;15.71;92.63;101367.44;5026751;28;20432;-80
2022/11/01 09:37:44;;;;;;;6.93;0.98;;;;;;;15.63;93.00;101367.38;5045898;28;20040;-81
2022/11/01 09:40:13;;;;;;;2.85;0.60;;;;;;;15.68;92.14;101377.44;5046276;28;20044;-80
2022/11/01 09:42:42;;;;;;;4.10;0.82;;;;;;;15.72;92.37;101366.44;5045588;28;20106;-80
2022/11/01 09:45:16;;;;;;;6.00;1.05;;;;;;;15.73;92.99;101369.91;5044573;28;20476;-80
2022/11/01 09:47:45;;;;;;;6.93;0.80;;;;;;;15.74;93.29;101358.41;5039655;28;20536;-80
2022/11/01 09:50:28;;;;;;;6.65;0.70;;;;;;;15.72;92.57;101361.19;5044586;28;20055;-82
2022/11/01 09:52:55;;;;;;;9.85;1.23;;;;;;;15.75;92.72;101349.56;5046416;28;20482;-82
2022/11/01 09:55:47;;;;;;;5.25;0.82;;;;;;;15.71;92.70;101358.72;5046603;28;20111;-82
2022/11/01 09:58:12;;;;;;;6.45;1.20;;;;;;;15.76;93.72;101354.66;5039812;28;20037;-83
2022/11/01 10:00:43;;;;;;;3.38;0.60;;;;;;;15.81;93.60;101356.81;5043801;28;20021;-83
2022/11/01 10:03:28;;;;;;;9.73;0.93;;;;;;;15.79;94.38;101361.41;5045969;28;20042;-82
2022/11/01 10:06:11;;;;;;;7.88;1.60;;;;;;;15.85;95.55;101371.28;5032658;28;20259;-83
2022/11/01 10:09:10;;;;;;;9.88;1.17;;;;;;;15.85;94.73;101369.47;5043055;28;20036;-82
2022/11/01 10:11:51;;;;;;;5.60;1.15;;;;;;;16.00;94.78;101359.22;5044295;28;20114;-83
2022/11/01 10:14:58;;;;;;;11.80;1.17;;;;;;;16.16;94.18;101356.63;5045339;28;20361;-82
2022/11/01 10:17:43;;;;;;;;;;;;;;;16.23;92.31;101360.25;5050055;28;20056;-83
2022/11/01 10:20:12;;;;;;;3.70;1.00;;;;;;;16.30;94.05;101355.19;5038251;28;19920;-83
2022/11/01 10:22:40;;;;;;;7.55;1.15;;;;;;;16.34;94.74;101356.53;5048071;28;20120;-82
2022/11/01 10:25:18;;;;;;;10.43;1.35;;;;;;;16.43;93.46;101349.47;5046143;28;20124;-84
2022/11/01 10:27:44;;;;;;;8.55;2.70;;;;;;;16.52;94.19;101354.59;5049265;28;20033;-82
2022/11/01 10:30:15;;;;;;;12.38;5.30;;;;;;;16.52;95.51;101344.06;5048200;28;20040;-82
2022/11/01 10:33:23;;;;;;;7.95;4.20;;;;;;;16.53;96.48;101347.53;5028915;28;20025;-82
2022/11/01 10:36:01;;;;;;;10.55;2.40;;;;;;;16.58;97.41;101345.22;5039838;28;20388;-82
2022/11/01 10:38:38;;;;;;;8.70;2.92;;;;;;;16.64;98.60;101341.97;5047902;28;20427;-82
2022/11/01 10:41:34;;;;;;;10.35;2.40;;;;;;;16.67;98.95;101336.38;5047665;28;20435;-82
2022/11/01 10:44:02;;;;;;;9.23;2.80;;;;;;;16.74;97.97;101332.13;5052722;28;20469;-82
2022/11/01 10:46:37;;;;;;;9.40;2.22;;;;;;;16.86;96.04;101327.34;5047287;28;20049;-82
2022/11/01 10:49:11;;;;;;;9.27;2.90;;;;;;;16.92;96.10;101322.25;5040263;28;20069;-82
2022/11/01 10:51:41;;;;;;;6.65;2.95;;;;;;;16.99;95.28;101325.06;5047534;28;20029;-82
2022/11/01 10:54:15;;;;;;;7.57;2.95;;;;;;;17.05;95.63;101328.81;5047048;28;20113;-82
2022/11/01 10:56:45;;;;;;;13.32;3.35;;;;;;;17.22;95.19;101323.38;5047382;28;20136;-83
2022/11/01 10:59:21;;;;;;;9.43;3.30;;;;;;;17.22;96.73;101323.38;5047800;28;20222;-82
2022/11/01 11:01:49;;;;;;;11.98;4.03;;;;;;;17.28;96.42;101318.41;5042747;28;20032;-83
2022/11/01 11:04:22;;;;;;;9.85;5.28;;;;;;;17.33;96.96;101316.13;5029389;28;20040;-83
2022/11/01 11:06:49;;;;;;;14.23;5.65;;;;;;;17.36;97.51;101321.03;5049321;28;20029;-82
2022/11/01 11:09:23;;;;;;;12.98;5.65;;;;;;;17.32;97.56;101314.47;5047004;28;20071;-82
2022/11/01 11:11:50;;;;;;;15.95;5.85;;;;;;;17.35;97.91;101311.50;5026857;28;20079;-83
2022/11/01 11:14:19;;;;;;;20.00;7.00;;;;;;;17.36;98.51;101321.03;5041914;28;20467;-82
2022/11/01 11:16:51;;;;;;;15.45;7.68;;;;;;;17.36;98.91;101311.34;5050743;28;20025;-83
2022/11/01 11:19:40;;;;;;;15.98;7.97;;;;;;;17.43;99.77;101317.56;5044373;28;20032;-83
2022/11/01 11:22:07;;;;;;;18.80;8.10;;;;;;;17.47;100.00;101321.53;5046885;28;20045;-83
2022/11/01 11:24:38;;;;;;;19.38;8.93;;;;;;;17.52;100.00;101310.44;5047209;28;20408;-83
2022/11/01 11:27:11;;;;;;;21.95;10.27;;;;;;;17.53;100.00;101306.81;5046910;28;20063;-83
2022/11/01 11:29:37;;;;;;;22.65;12.48;;;;;;;17.63;100.00;101310.09;5032323;28;20041;-82
2022/11/01 11:32:07;;;;;;;22.42;13.98;;;;;;;17.67;100.00;101307.97;5028834;28;20021;-82
2022/11/01 11:34:35;;;;;;;19.80;13.93;;;;;;;17.69;100.00;101308.63;5047502;28;20388;-82
2022/11/01 11:37:06;;;;;;;24.10;13.88;;;;;;;17.67;100.00;101305.34;5047581;28;20102;-82
2022/11/01 11:39:34;;;;;;;27.70;14.55;;;;;;;17.71;100.00;101299.56;5047395;28;20068;-82
2022/11/01 11:42:10;;;;;;;25.80;14.75;;;;;;;17.76;100.00;101291.97;5047413;28;20029;-83
2022/11/01 11:44:42;;;;;;;25.40;15.82;;;;;;;17.81;100.00;101294.91;5046758;28;20037;-82
2022/11/01 11:47:24;;;;;;;25.67;14.70;;;;;;;17.83;100.00;101297.38;5028514;28;20068;-82
2022/11/01 11:49:59;;;;;;;22.77;15.43;;;;;;;17.85;100.00;101300.66;5046359;28;20032;-82
2022/11/01 11:52:38;;;;;;;29.58;15.77;;;;;;;17.83;100.00;101292.91;5037589;28;20033;-82